Hauptseite
METAR-TAF:

METAR-TAF

Flughäfen :

Yellowstone Lake, Wyoming, Vereinigte Staaten

Breite: 44-32-40N, Länge: 110-25-16W, Höhe: 2388 m

Beobachtung

Neuester Wetterbericht von vor 34 Minuten, um 23:56 UTC
Wind 5 kt aus West/Nordwest
Temperatur -12°C
Luftfeuchtigkeit 78%
Luftdruck 999 hPa

METAR: KP60 202356Z AUTO 29005KT M12/M15 A2950 RMK AO1 SLP086 T11171150 11106 21156 53007

Zeit: 17:30 (00:30 UTC)


TAF: fehlend

Wetterbeobachtungen und Prognosen von mehr als 4000 Flughäfen (METAR und TAF Bericht).

Die verfügbaren Stationen werden durch gelbe und rote Markierungen auf der Karte dargestellt.

Führen Sie die Maus auf sie, um den Namen der Station zu sehen.

Darauf klicken, um die Beobachtung von Wetterbeobachtungen und Prognosen zu sehen.

Um die Karte zu ändern : klicken Sie auf den grünen Tasten mit einem schwarzen Kreuz Zum Vergrößern, auf den grünen Button mit einem Gedankenstrich zu verkleinern, oder auf die grünen Pfeile für benachbarte Karten.


METAR-TAF: